Aérodrome :
LOGIN :

S'inscrire | Disclaimer

   EN    FR    IT 

 










Légende :    VFR   VFR Marginal   IFR   IFR Intensif   IFR Très Intensif
Visi : 
Plafond : 
>= 8 km
>= 3000ft
5 à 8 km
1000 à 3000 ft
1500m à 5 km
500 à 1000 ft
800 à 1500m
200 à 500 ft
< 800m
< 200 ft
Symboles :   Orages  Brouillard  Fortes neiges  Fortes précipitations  Vent > 20 kt
SIGMETs :   Divers  Orages  Givrage  Turbulence  Onde Orograph.  Cendres Volcan.






- Altitude de l'aérodrome : 776 ft
- Code IATA : RMS


ETAR - Ramstein Air Base

DERNIER METAR :
  • 230156Z AUTO 06009KT 9999 OVC010 03/03 A2952 RMK AO2 SLP007 T00310030 $

METARs EXPIRÉS :
  • 230116Z AUTO 06007KT 9999 OVC009 03/03 A2955 RMK AO2 SLP016 $
  • 230056Z AUTO 06006KT 9999 OVC010 03/03 A2955 RMK AO2 SLP017 T00330032 $
  • 230036Z AUTO 05006KT 9999 OVC010 04/03 A2955 RMK AO2 SLP016 $
  • 230026Z AUTO 05008KT 9999 OVC011 04/03 A2956 RMK AO2 SLP019 $
  • 222356Z AUTO 05010KT 9999 OVC012 04/03 A2956 RMK AO2 SLP020 T00370034 10046 20037 57015 $
  • 222336Z AUTO 06008KT 9999 OVC012 04/03 A2957 RMK AO2 SLP024 $

TAF TAF ETAR
Valide du 23 à 02h jusqu'au 24 à 08h UTC


230200Z 2302/2408 07009KT 9999 BKN009 QNH2948INS
TEMPO 2302/2305 BKN010
BECMG 2306/2307 06009KT 9999 SCT013 QNH2944INS
BECMG 2319/2320 VRB06KT 8000 BR SCT015 QNH2955INS
BECMG 2323/2324 VRB06 3200 BR BKN015 QNH2958INS
TEMPO 2402/2405 0800 FZFG TX07/2312Z TN00/2402Z



MET'MAP, la Météo Aéronautique d'un coup d'oeil ! - Copyright ORBIFLY Décembre 2007 - Disclaimer

ORBIFLY MET'MAP TEAM :

Programmation & Développement : Alexandra Zaïnal
Conception & Développement : Baudouin d'Aumeries
Co-Programmation & Développement : Marc-Olivier Méhu
Soutien technique & logistique : Manuel Goepfert

Contact : metmap@orbifly.com




SOURCES & CREDITS :

   NOAA